To NAV CANADA Home Page Login to a new session Search on AWWS site Disclaimer Vers la page française équivalente Tips FAQ What's new on the site To the Forecasts and Observations / NOTAM section To "File a Flight Plan" website Publications and other links Update of the User's profile FIC Telephone Numbers My Weather Data Folder Route Weather Data Regional Weather Data Local Weather Data To the Forecasts and Observations / NOTAM section
Request Generated 03/19/2019 at 23:06:28 UTC . Weather information available at that time is displayed.

METAR/TAF

NORMAN WELLS/NT    

METAR CYVQ 192300Z 00000KT 30SM FEW070 FEW120 FEW250 16/M03 A2968 RMK AC1AC1CI1 CI TR SLP057 DENSITY ALT 700FT=
METAR CYVQ 192200Z VRB02KT 30SM FEW060 FEW100 FEW250 14/M03 A2968 RMK SC1AC1CI1 SC TR AC TR CI TR SLP057 DENSITY ALT 500FT=
METAR CYVQ 192100Z VRB02KT 30SM FEW060 FEW250 12/M02 A2968 RMK SC1CI1 SC TR CI TR SLP056=

TAF CYVQ 191738Z 1918/2006 VRB03KT P6SM FEW060 BKN250
BECMG 1922/1924 27005KT
FM200300 27005KT P6SM BKN060
BECMG 2004/2006 27010KT
RMK NXT FCST BY 200000Z=
Your time UTC time
Weather data provided by Environment Canada and NAV CANADA